createdAt,value
2019-03-06T00:04:07.024Z,95.76
2019-03-06T00:09:06.507Z,95.75
2019-03-06T00:14:06.663Z,95.07
2019-03-06T00:19:06.397Z,95.12
2019-03-06T00:24:06.596Z,95.78
2019-03-06T00:29:06.866Z,95.47
2019-03-06T00:34:06.573Z,95.73
2019-03-06T00:39:07.023Z,96.09
2019-03-06T00:44:06.247Z,96.19
2019-03-06T00:49:06.273Z,96.05
2019-03-06T00:54:06.487Z,96.21
2019-03-06T00:59:06.712Z,96.51
2019-03-06T01:04:08.058Z,96.34
2019-03-06T01:09:07.795Z,96.44
2019-03-06T01:13:07.112Z,97.92
2019-03-06T01:18:06.671Z,98.05
2019-03-06T01:23:06.900Z,98.18
2019-03-06T01:28:06.165Z,97.8
2019-03-06T01:33:06.845Z,98.15
2019-03-06T01:38:06.103Z,98.07
2019-03-06T01:43:06.689Z,98.37
2019-03-06T01:48:06.462Z,98.4
2019-03-06T01:53:06.764Z,98.91
2019-03-06T01:58:07.095Z,98.89
2019-03-06T02:03:09.291Z,99.14
2019-03-06T02:07:10.311Z,99.18
2019-03-06T02:08:08.530Z,99.18
2019-03-06T02:12:06.698Z,99.14
2019-03-06T02:17:06.362Z,98.82
2019-03-06T02:22:06.572Z,98.99
2019-03-06T02:27:06.751Z,99.15
2019-03-06T02:32:07.105Z,99.11
2019-03-06T02:37:06.283Z,99.02
2019-03-06T02:42:06.988Z,98.54
2019-03-06T02:47:06.524Z,98.29
2019-03-06T02:52:06.863Z,98.31
2019-03-06T02:56:08.036Z,98.16
2019-03-06T03:01:06.691Z,98.27
2019-03-06T03:06:06.975Z,98.69
2019-03-06T03:11:06.531Z,98.76
2019-03-06T03:16:07.082Z,98.82
2019-03-06T03:21:06.300Z,98.82
2019-03-06T03:26:06.494Z,98.79
2019-03-06T03:30:09.306Z,99.05
2019-03-06T03:31:06.194Z,99.05
2019-03-06T03:35:07.535Z,98.21
2019-03-06T03:41:07.843Z,98.63
2019-03-06T03:45:08.961Z,98.56
2019-03-06T03:50:06.952Z,98.58
2019-03-06T03:55:07.489Z,98.29
2019-03-06T04:00:09.638Z,98.42
2019-03-06T04:05:06.738Z,98.37
2019-03-06T04:10:08.094Z,98.04
2019-03-06T04:15:08.113Z,98.31
2019-03-06T04:20:07.282Z,98.49
2019-03-06T04:24:07.833Z,98.41
2019-03-06T04:29:06.802Z,98.06
2019-03-06T04:34:07.138Z,97.87
2019-03-06T04:39:07.429Z,97.47
2019-03-06T04:44:07.885Z,97.13
2019-03-06T04:49:07.899Z,97.02
2019-03-06T04:54:07.898Z,96.64
2019-03-06T04:59:06.913Z,96.07
2019-03-06T05:04:07.502Z,96.56
2019-03-06T05:09:08.334Z,97.72
2019-03-06T05:14:07.914Z,97.1
2019-03-06T05:19:07.550Z,97.41
2019-03-06T05:24:08.099Z,97.51
2019-03-06T05:29:08.391Z,97.53
2019-03-06T05:34:07.501Z,96.96
2019-03-06T05:38:07.180Z,97.37
2019-03-06T05:44:07.658Z,97.39
2019-03-06T05:48:07.155Z,98.05
2019-03-06T05:53:07.425Z,97.59
2019-03-06T05:58:06.765Z,97.6
2019-03-06T06:03:07.528Z,97.5
2019-03-06T06:08:08.322Z,97.77
2019-03-06T06:13:07.274Z,97.56
2019-03-06T06:18:07.356Z,97.06
2019-03-06T06:23:06.636Z,96
2019-03-06T06:28:07.423Z,96.05
2019-03-06T06:33:07.243Z,95.56
2019-03-06T06:38:07.442Z,95.41
2019-03-06T06:43:07.616Z,92.51
2019-03-06T06:48:06.588Z,90.02
2019-03-06T06:53:06.861Z,88.58
2019-03-06T06:58:08.535Z,88.39
2019-03-06T07:03:07.959Z,87.49
2019-03-06T07:08:07.196Z,85.21
2019-03-06T07:13:07.846Z,83.98
2019-03-06T07:18:07.892Z,82.88
2019-03-06T07:23:07.066Z,81.41
2019-03-06T07:28:07.262Z,82.68
2019-03-06T07:33:07.235Z,82.79
2019-03-06T07:37:06.751Z,82.29
2019-03-06T07:42:07.265Z,81.81
2019-03-06T07:47:07.295Z,82.12
2019-03-06T07:52:07.862Z,81.78
2019-03-06T07:57:07.302Z,81.78
2019-03-06T08:02:07.139Z,79.06
2019-03-06T08:07:08.141Z,78.22
2019-03-06T08:12:07.554Z,76
2019-03-06T08:17:07.483Z,75.86
2019-03-06T08:22:08.234Z,72.72
2019-03-06T08:26:09.316Z,78.06
2019-03-06T08:31:07.690Z,72.95
2019-03-06T08:36:07.512Z,72.1
2019-03-06T08:41:08.792Z,73.4
2019-03-06T08:46:07.397Z,73.27
2019-03-06T08:51:08.473Z,72.68
2019-03-06T08:56:07.967Z,73
2019-03-06T09:01:07.913Z,72.3
2019-03-06T09:06:07.410Z,71.69
2019-03-06T09:11:07.561Z,69.76
2019-03-06T09:15:12.441Z,68.67
2019-03-06T09:16:08.284Z,68.67
2019-03-06T09:20:08.085Z,68.14
2019-03-06T09:25:08.100Z,69.45
2019-03-06T09:30:17.237Z,68.99
2019-03-06T09:35:08.207Z,69.41
2019-03-06T09:40:08.839Z,69.15
2019-03-06T09:45:09.241Z,69.49
2019-03-06T09:49:12.111Z,68.66
2019-03-06T09:54:07.419Z,69.31
2019-03-06T09:59:06.752Z,69.85
2019-03-06T10:04:07.206Z,69.02
2019-03-06T10:09:07.885Z,67.35
2019-03-06T10:14:07.128Z,68.28
2019-03-06T10:19:08.446Z,67.61
2019-03-06T10:24:07.875Z,65.92
2019-03-06T10:28:07.351Z,66.32
2019-03-06T10:33:06.943Z,66.38
2019-03-06T10:38:07.249Z,65.11
2019-03-06T10:43:07.420Z,66.67
2019-03-06T10:48:07.153Z,70.28
2019-03-06T10:53:06.623Z,70.33
2019-03-06T10:57:08.553Z,65.96
2019-03-06T11:02:06.678Z,65.87
2019-03-06T11:07:07.620Z,64.64
2019-03-06T11:12:07.359Z,64.53
2019-03-06T11:17:07.123Z,64.67
2019-03-06T11:22:08.059Z,67
2019-03-06T11:27:07.304Z,65.17
2019-03-06T11:32:07.417Z,64.74
2019-03-06T11:36:07.357Z,65
2019-03-06T11:41:06.994Z,65.09
2019-03-06T11:46:07.636Z,66.03
2019-03-06T11:47:08.618Z,66.03
2019-03-06T11:52:08.099Z,65.22
2019-03-06T11:57:06.694Z,65.63
2019-03-06T12:01:07.771Z,65.6
2019-03-06T12:07:08.026Z,63.29
2019-03-06T12:11:07.772Z,63.87
2019-03-06T12:16:07.501Z,64.48
2019-03-06T12:21:06.999Z,64.45
2019-03-06T12:26:07.979Z,63.53
2019-03-06T12:31:08.601Z,64.2
2019-03-06T12:36:07.153Z,64.02
2019-03-06T12:40:14.768Z,64.1
2019-03-06T12:45:09.210Z,62.72
2019-03-06T12:50:08.407Z,63.74
2019-03-06T12:55:07.057Z,62.74
2019-03-06T13:00:09.157Z,63.18
2019-03-06T13:05:07.517Z,63.13
2019-03-06T13:10:07.249Z,61.39
2019-03-06T13:14:07.668Z,64.08
2019-03-06T13:20:09.557Z,64.34
2019-03-06T13:25:09.843Z,62.15
2019-03-06T13:30:08.954Z,62.94
2019-03-06T13:35:07.902Z,63.83
2019-03-06T13:40:07.529Z,64.04
2019-03-06T13:45:09.064Z,63.9
2019-03-06T13:50:07.104Z,63.1
2019-03-06T13:54:07.679Z,64.86
2019-03-06T13:55:07.199Z,64.86
2019-03-06T13:59:06.874Z,64.96
2019-03-06T14:04:06.540Z,64.04
2019-03-06T14:09:07.910Z,64.65
2019-03-06T14:14:07.129Z,63.37
2019-03-06T14:19:07.035Z,63.38
2019-03-06T14:24:07.689Z,63.19
2019-03-06T14:29:07.029Z,64.32
2019-03-06T14:33:07.819Z,64.05
2019-03-06T14:38:07.727Z,64.52
2019-03-06T14:43:07.220Z,65.18
2019-03-06T14:48:07.540Z,63.81
2019-03-06T14:53:07.852Z,64.03
2019-03-06T14:58:07.162Z,64.45
2019-03-06T15:02:08.985Z,62.96
2019-03-06T15:07:07.806Z,64.22
2019-03-06T15:12:07.262Z,65.88
2019-03-06T15:17:07.227Z,66.12
2019-03-06T15:22:08.090Z,66.76
2019-03-06T15:27:07.992Z,67.1
2019-03-06T15:32:07.906Z,67.28
2019-03-06T15:37:07.115Z,67.12
2019-03-06T15:42:06.857Z,66.47
2019-03-06T15:47:06.779Z,65.75
2019-03-06T15:52:07.047Z,65.65
2019-03-06T15:56:07.623Z,66.19
2019-03-06T16:01:07.133Z,66.96
2019-03-06T16:06:07.450Z,66.85
2019-03-06T16:11:07.319Z,67.67
2019-03-06T16:16:06.908Z,68.19
2019-03-06T16:21:07.275Z,68.83
2019-03-06T16:26:07.853Z,69.37
2019-03-06T16:31:08.538Z,69.31
2019-03-06T16:36:07.916Z,69.18
2019-03-06T16:41:07.244Z,69.76
2019-03-06T16:45:09.198Z,71.34
2019-03-06T16:46:07.820Z,71.34
2019-03-06T16:50:17.261Z,71.72
2019-03-06T16:55:07.972Z,72.08
2019-03-06T17:00:08.619Z,71.6
2019-03-06T17:05:07.248Z,70.99
2019-03-06T17:10:07.502Z,70.93
2019-03-06T17:15:09.032Z,70.3
2019-03-06T17:19:07.797Z,70.37
2019-03-06T17:25:08.043Z,70.08
2019-03-06T17:29:07.272Z,69.36
2019-03-06T17:34:07.619Z,69.5
2019-03-06T17:39:08.245Z,70.35
2019-03-06T17:44:07.472Z,70.15
2019-03-06T17:49:07.291Z,69.56
2019-03-06T17:54:07.604Z,69.64
2019-03-06T17:59:07.496Z,68.95
2019-03-06T18:04:07.902Z,68.33
2019-03-06T18:09:07.555Z,68.36
2019-03-06T18:14:08.612Z,68.5
2019-03-06T18:19:07.825Z,68.12
2019-03-06T18:23:08.073Z,68.89
2019-03-06T18:28:07.363Z,69.5
2019-03-06T18:33:07.212Z,69.57
2019-03-06T18:38:07.127Z,69.57
2019-03-06T18:43:07.264Z,70.18
2019-03-06T18:48:07.450Z,70.72
2019-03-06T18:53:07.752Z,71.69
2019-03-06T18:57:08.376Z,72.98
2019-03-06T18:58:07.597Z,72.98
2019-03-06T19:02:08.058Z,72.93
2019-03-06T19:07:07.312Z,73.16
2019-03-06T19:12:07.986Z,72.85
2019-03-06T19:17:07.805Z,72.11
2019-03-06T19:22:08.159Z,71.64
2019-03-06T19:27:07.505Z,71.66
2019-03-06T19:32:07.796Z,71.14
2019-03-06T19:37:07.119Z,71.4
2019-03-06T19:42:07.772Z,72.01
2019-03-06T19:46:07.533Z,71.92
2019-03-06T19:51:07.792Z,71.79
2019-03-06T19:56:08.088Z,71.24
2019-03-06T20:01:07.557Z,71.3
2019-03-06T20:06:07.841Z,70.66
2019-03-06T20:11:07.519Z,70.65
2019-03-06T20:16:07.093Z,71.11
2019-03-06T20:21:07.497Z,70.6
2019-03-06T20:26:17.055Z,70.52
2019-03-06T20:30:09.360Z,71.92
2019-03-06T20:31:08.500Z,71.92
2019-03-06T20:35:07.874Z,71.77
2019-03-06T20:36:07.072Z,71.77
2019-03-06T20:40:08.239Z,73.37
2019-03-06T20:45:08.988Z,71.96
2019-03-06T20:50:07.882Z,71.5
2019-03-06T20:55:07.221Z,72.61
2019-03-06T21:00:09.659Z,74.72
2019-03-06T21:05:07.823Z,75.58
2019-03-06T21:09:08.691Z,75.82
2019-03-06T21:10:08.016Z,75.82
2019-03-06T21:14:07.207Z,76.23
2019-03-06T21:19:07.410Z,75.9
2019-03-06T21:24:07.633Z,75.55
2019-03-06T21:29:07.920Z,75.39
2019-03-06T21:34:09.769Z,76.61
2019-03-06T21:39:08.722Z,78.48
2019-03-06T21:44:07.319Z,79.14
2019-03-06T21:49:07.244Z,79.2
2019-03-06T21:54:08.288Z,78.41
2019-03-06T21:59:07.843Z,77.65
2019-03-06T22:03:08.302Z,76.85
2019-03-06T22:09:08.271Z,76.68
2019-03-06T22:13:08.410Z,77.19
2019-03-06T22:18:07.339Z,76.17
2019-03-06T22:23:07.580Z,75.28
2019-03-06T22:28:07.879Z,75.31
2019-03-06T22:33:07.856Z,75.61
2019-03-06T22:38:07.575Z,74.97
2019-03-06T22:43:07.377Z,74.7
2019-03-06T22:48:08.467Z,74.43
2019-03-06T22:52:07.995Z,74.19
2019-03-06T22:53:07.483Z,74.19
2019-03-06T22:57:07.295Z,74.32
2019-03-06T23:02:07.122Z,74.17
2019-03-06T23:07:07.347Z,74.75
2019-03-06T23:12:07.128Z,75.4
2019-03-06T23:17:07.186Z,75.87
2019-03-06T23:23:07.833Z,77.62
2019-03-06T23:27:07.152Z,79.04
2019-03-06T23:32:07.459Z,79.02
2019-03-06T23:37:07.679Z,77.91
2019-03-06T23:42:07.358Z,77.66
2019-03-06T23:47:07.303Z,77.51
2019-03-06T23:52:07.574Z,76.83
2019-03-06T23:57:06.822Z,76.76
